Time;durP1;ratioP1;P1;durP2;ratioP2;P2;SDS_P1;SDS_P2;PMS_P1;PMS_P2;Temp;Humidity;BMP_temperature;BMP_pressure;BME280_temperature;BME280_humidity;BME280_pressure;Samples;Min_cycle;Max_cycle;Signal;HPM_P1;HPM_P2
2023/01/25 18:45:38;;;;;;;22.67;7.30;;;20.20;99.90;;;;;;5068995;28;20387;-56
2023/01/25 18:48:04;;;;;;;11.20;7.00;;;20.20;99.90;;;;;;5067972;28;20025;-55
2023/01/25 18:50:33;;;;;;;15.17;7.63;;;20.20;99.90;;;;;;5068948;28;20154;-55
2023/01/25 18:52:59;;;;;;;15.73;7.38;;;20.30;99.90;;;;;;5069519;28;20266;-55
2023/01/25 18:55:26;;;;;;;13.40;7.07;;;20.30;99.90;;;;;;5069495;28;20375;-56
2023/01/25 18:57:52;;;;;;;12.80;6.57;;;20.40;99.90;;;;;;5069327;28;20021;-55
2023/01/25 19:00:18;;;;;;;14.18;7.50;;;20.50;99.90;;;;;;5069294;28;20032;-55
2023/01/25 19:05:17;;;;;;;20.63;6.93;;;20.50;99.90;;;;;;5087724;28;20052;-55
2023/01/25 19:07:43;;;;;;;14.00;6.82;;;20.60;99.90;;;;;;5089499;28;20044;-54
2023/01/25 19:10:09;;;;;;;15.30;7.47;;;20.60;99.90;;;;;;5089461;28;20443;-55
2023/01/25 19:12:35;;;;;;;15.20;7.35;;;20.70;99.90;;;;;;5087958;28;20383;-56
2023/01/25 19:15:01;;;;;;;13.85;6.47;;;20.70;99.90;;;;;;5088064;28;20393;-55
2023/01/25 19:17:27;;;;;;;10.15;6.28;;;20.70;99.90;;;;;;5089248;28;20020;-54
2023/01/25 19:19:52;;;;;;;17.67;6.85;;;20.70;99.90;;;;;;5089011;28;20032;-57
2023/01/25 19:22:18;;;;;;;11.38;7.75;;;20.70;99.90;;;;;;5089261;28;20451;-55
2023/01/25 19:24:44;;;;;;;13.25;6.10;;;20.70;99.90;;;;;;5089021;28;20391;-55
2023/01/25 19:27:10;;;;;;;12.02;7.07;;;20.80;99.90;;;;;;5089061;28;20021;-56
2023/01/25 19:29:36;;;;;;;13.43;6.32;;;20.80;99.90;;;;;;5078063;28;20369;-57
2023/01/25 19:32:01;;;;;;;13.25;6.47;;;20.80;99.90;;;;;;5085355;28;20021;-56
2023/01/25 19:34:27;;;;;;;14.15;6.97;;;20.80;99.90;;;;;;5088539;28;20029;-57
2023/01/25 19:36:54;;;;;;;15.43;6.28;;;20.80;99.90;;;;;;5088203;28;20040;-57
2023/01/25 19:39:20;;;;;;;11.00;7.17;;;20.80;99.90;;;;;;5087747;28;20099;-56
2023/01/25 19:41:46;;;;;;;14.07;6.80;;;20.80;99.90;;;;;;5079578;28;20079;-56
2023/01/25 19:44:13;;;;;;;14.00;7.45;;;20.80;99.90;;;;;;5067845;28;20045;-55
2023/01/25 19:46:39;;;;;;;14.15;7.25;;;20.80;99.90;;;;;;5081711;28;20119;-55
2023/01/25 19:49:09;;;;;;;11.75;6.90;;;20.80;99.90;;;;;;5066992;28;20020;-59
2023/01/25 19:51:38;;;;;;;12.77;6.82;;;20.80;99.90;;;;;;5066524;28;20029;-58
2023/01/25 19:54:10;;;;;;;14.60;6.72;;;20.80;99.90;;;;;;5071623;28;20020;-58
2023/01/25 19:56:39;;;;;;;12.15;6.47;;;20.80;99.90;;;;;;5062653;28;20025;-60
2023/01/25 19:59:07;;;;;;;10.27;6.38;;;20.80;99.90;;;;;;5074458;28;20101;-57
2023/01/25 20:01:35;;;;;;;16.08;8.23;;;20.80;99.90;;;;;;5074721;28;20039;-57
2023/01/25 20:04:04;;;;;;;14.00;7.25;;;20.80;99.90;;;;;;5087419;22;20475;-55
2023/01/25 20:06:31;;;;;;;9.90;6.57;;;20.80;99.90;;;;;;5084045;28;20028;-57
2023/01/25 20:08:57;;;;;;;12.33;7.63;;;20.80;99.90;;;;;;5094955;28;20494;-58
2023/01/25 20:11:28;;;;;;;14.25;7.28;;;20.70;99.90;;;;;;5094610;28;20028;-55
2023/01/25 20:13:56;;;;;;;11.60;6.40;;;20.70;99.90;;;;;;5094213;28;20020;-57
2023/01/25 20:16:22;;;;;;;15.15;6.90;;;20.70;99.90;;;;;;5092386;28;20028;-61
2023/01/25 20:18:48;;;;;;;12.82;6.88;;;20.70;99.90;;;;;;5073242;28;20024;-59
2023/01/25 20:21:18;;;;;;;12.35;7.20;;;20.70;99.90;;;;;;5073027;28;20065;-58
2023/01/25 20:23:46;;;;;;;13.35;7.43;;;20.70;99.90;;;;;;5087756;28;20082;-59
2023/01/25 20:26:14;;;;;;;15.20;7.45;;;20.70;99.90;;;;;;5073405;28;20028;-56
2023/01/25 20:28:41;;;;;;;11.68;6.80;;;20.70;99.90;;;;;;5073239;28;20032;-57
2023/01/25 20:31:22;;;;;;;11.77;6.50;;;20.70;99.90;;;;;;5089513;28;20039;-56
2023/01/25 20:33:49;;;;;;;13.35;6.68;;;20.70;99.90;;;;;;5089703;28;20024;-55
2023/01/25 20:36:16;;;;;;;13.40;7.57;;;20.70;99.90;;;;;;5080940;28;20020;-57
2023/01/25 20:38:42;;;;;;;13.35;7.10;;;20.60;99.90;;;;;;5093862;28;20103;-56
2023/01/25 20:41:12;;;;;;;13.52;6.88;;;20.70;99.90;;;;;;5094174;28;20034;-57
2023/01/25 20:43:39;;;;;;;10.10;6.75;;;20.70;99.90;;;;;;5088262;28;20062;-58
2023/01/25 20:46:05;;;;;;;13.00;6.47;;;20.60;99.90;;;;;;5073108;28;20067;-57
2023/01/25 20:48:35;;;;;;;11.18;7.10;;;20.60;99.90;;;;;;5090393;28;20039;-58
2023/01/25 20:51:08;;;;;;;10.55;6.53;;;20.60;99.90;;;;;;5090621;28;20470;-57
2023/01/25 20:53:35;;;;;;;11.13;8.18;;;20.60;99.90;;;;;;5072504;28;20020;-56
2023/01/25 20:56:01;;;;;;;13.20;7.18;;;20.60;99.90;;;;;;5076484;28;20671;-55
2023/01/25 20:58:28;;;;;;;14.80;7.65;;;20.60;99.90;;;;;;5093550;28;20093;-59
2023/01/25 21:00:54;;;;;;;12.88;7.15;;;20.60;99.90;;;;;;5093265;28;20020;-57
2023/01/25 21:03:21;;;;;;;11.25;7.10;;;20.50;99.90;;;;;;5093952;28;20040;-60
2023/01/25 21:05:56;;;;;;;10.93;7.05;;;20.50;99.90;;;;;;5071877;28;20463;-61
2023/01/25 21:08:23;;;;;;;12.27;7.70;;;20.50;99.90;;;;;;5071804;28;20043;-60
2023/01/25 21:10:50;;;;;;;;;;;20.50;99.90;;;;;;5085424;28;20079;-59
2023/01/25 21:13:17;;;;;;;12.82;7.35;;;20.50;99.90;;;;;;5093129;28;20380;-60
2023/01/25 21:16:22;;;;;;;12.93;7.70;;;20.50;99.90;;;;;;5073735;28;20058;-58
2023/01/25 21:18:53;;;;;;;11.27;7.97;;;20.50;99.90;;;;;;5061426;28;20591;-57
2023/01/25 21:21:27;;;;;;;12.52;8.10;;;20.50;99.90;;;;;;5070106;28;20094;-54
2023/01/25 21:23:54;;;;;;;15.00;7.90;;;20.50;99.90;;;;;;5072218;28;20044;-55
2023/01/25 21:26:22;;;;;;;14.95;8.90;;;20.50;99.90;;;;;;5070627;28;20108;-55
2023/01/25 21:28:49;;;;;;;12.55;8.05;;;20.50;99.90;;;;;;5072502;28;20185;-54
2023/01/25 21:31:16;;;;;;;12.82;9.05;;;20.50;99.90;;;;;;5072985;28;20021;-53
2023/01/25 21:33:43;;;;;;;14.10;7.90;;;20.40;99.90;;;;;;5072043;28;20491;-55
2023/01/25 21:36:13;;;;;;;12.02;8.27;;;20.40;99.90;;;;;;5071438;28;20025;-53
2023/01/25 21:38:44;;;;;;;13.32;8.07;;;20.40;99.90;;;;;;5072072;28;20048;-59
2023/01/25 21:41:14;;;;;;;17.73;8.38;;;20.30;99.90;;;;;;5075170;28;20028;-59
2023/01/25 21:46:26;;;;;;;13.32;8.80;;;20.30;99.90;;;;;;5083229;28;20058;-58
2023/01/25 21:51:50;;;;;;;13.27;8.82;;;20.30;99.90;;;;;;5085486;28;20031;-56
2023/01/25 21:54:31;;;;;;;14.38;9.10;;;20.20;99.90;;;;;;5091556;28;20103;-57
2023/01/25 21:56:59;;;;;;;15.10;9.20;;;20.30;99.90;;;;;;5084291;28;20029;-56
2023/01/25 21:59:25;;;;;;;12.88;8.93;;;20.30;99.90;;;;;;5078293;28;20027;-56
2023/01/25 22:01:52;;;;;;;14.85;9.93;;;20.20;99.90;;;;;;5092681;28;20032;-56
2023/01/25 22:04:19;;;;;;;12.23;9.13;;;20.20;99.90;;;;;;5082205;28;20512;-54
2023/01/25 22:06:47;;;;;;;11.65;8.23;;;20.20;99.90;;;;;;5070867;28;20100;-56
2023/01/25 22:09:13;;;;;;;14.18;8.60;;;20.20;99.90;;;;;;5078524;28;20044;-56
2023/01/25 22:11:39;;;;;;;11.68;7.50;;;20.10;99.90;;;;;;5091327;28;20035;-55
2023/01/25 22:14:05;;;;;;;11.98;8.32;;;20.20;99.90;;;;;;5075769;28;20069;-56
2023/01/25 22:16:31;;;;;;;13.63;9.32;;;20.10;99.90;;;;;;5071432;28;20469;-56
2023/01/25 22:19:00;;;;;;;12.15;8.52;;;20.10;99.90;;;;;;5074831;28;20396;-56
2023/01/25 22:21:30;;;;;;;12.18;7.72;;;20.10;99.90;;;;;;5078333;28;20032;-54
2023/01/25 22:23:57;;;;;;;18.10;8.43;;;20.10;99.90;;;;;;5086407;28;20032;-55
2023/01/25 22:26:25;;;;;;;12.43;8.13;;;20.10;99.90;;;;;;5071210;28;20128;-56
2023/01/25 22:28:56;;;;;;;12.18;8.02;;;20.00;99.90;;;;;;5086206;28;20016;-59
2023/01/25 22:31:24;;;;;;;15.35;8.88;;;20.00;99.90;;;;;;5092255;28;20348;-60
2023/01/25 22:33:50;;;;;;;;;;;20.00;99.90;;;;;;5078756;28;20032;-58
2023/01/25 22:36:18;;;;;;;11.80;7.93;;;20.00;99.90;;;;;;5076260;28;20069;-63
2023/01/25 22:38:44;;;;;;;;;;;19.90;99.90;;;;;;5072447;28;20383;-65
2023/01/25 22:41:15;;;;;;;13.38;8.55;;;19.90;99.90;;;;;;5092214;28;19904;-64
2023/01/25 22:43:42;;;;;;;13.90;8.43;;;19.90;99.90;;;;;;5091497;28;20508;-62
2023/01/25 22:46:10;;;;;;;13.40;8.20;;;19.90;99.90;;;;;;5092119;28;20375;-65
2023/01/25 22:48:36;;;;;;;13.98;8.75;;;19.90;99.90;;;;;;5091719;28;20492;-60
2023/01/25 22:51:17;;;;;;;12.57;9.38;;;19.80;99.90;;;;;;5091968;28;20085;-61
2023/01/25 22:53:43;;;;;;;14.07;9.52;;;19.80;99.90;;;;;;5092994;28;20023;-60
2023/01/25 22:56:12;;;;;;;16.55;8.70;;;19.80;99.90;;;;;;5079487;28;20024;-64
2023/01/25 22:58:40;;;;;;;13.90;8.57;;;19.80;99.90;;;;;;5085749;28;20033;-61
2023/01/25 23:01:12;;;;;;;13.77;9.52;;;19.80;99.90;;;;;;5083245;28;20020;-61
2023/01/25 23:03:38;;;;;;;13.18;10.05;;;19.70;99.90;;;;;;5092182;28;20052;-61
2023/01/25 23:06:07;;;;;;;13.60;8.55;;;19.80;99.90;;;;;;5091870;28;20024;-58
2023/01/25 23:08:34;;;;;;;17.05;9.90;;;19.70;99.90;;;;;;5091969;28;20028;-61
2023/01/25 23:11:02;;;;;;;16.50;9.60;;;19.70;99.90;;;;;;5092227;28;20028;-59
2023/01/25 23:13:28;;;;;;;13.82;9.80;;;19.70;99.90;;;;;;5091525;28;20070;-61
2023/01/25 23:15:55;;;;;;;16.17;9.90;;;19.70;99.90;;;;;;5088728;28;20035;-61
2023/01/25 23:21:06;;;;;;;15.98;9.43;;;19.70;99.90;;;;;;5078348;28;20063;-59
2023/01/25 23:23:32;;;;;;;18.08;10.32;;;19.70;99.90;;;;;;5070994;28;20040;-60
2023/01/25 23:26:00;;;;;;;14.13;10.20;;;19.70;99.90;;;;;;5087303;28;20028;-61
2023/01/25 23:28:29;;;;;;;17.35;10.65;;;19.70;99.90;;;;;;5091441;28;20020;-60
2023/01/25 23:31:10;;;;;;;15.40;10.32;;;19.60;99.90;;;;;;5093066;28;20036;-61
2023/01/25 23:33:39;;;;;;;14.85;10.68;;;19.60;99.90;;;;;;5095541;28;20032;-61
2023/01/25 23:36:14;;;;;;;15.07;10.40;;;19.60;99.90;;;;;;5095059;28;20013;-61
2023/01/25 23:38:41;;;;;;;18.45;10.95;;;19.60;99.90;;;;;;5095334;28;20020;-61
2023/01/25 23:41:07;;;;;;;15.90;10.68;;;19.60;99.90;;;;;;5095320;28;20027;-60
2023/01/25 23:43:33;;;;;;;19.75;11.18;;;19.60;99.90;;;;;;5095091;28;20028;-61
2023/01/25 23:45:59;;;;;;;15.65;10.38;;;19.60;99.90;;;;;;5095465;28;20456;-61
2023/01/25 23:48:25;;;;;;;17.42;10.57;;;19.60;99.90;;;;;;5095336;28;20559;-61
2023/01/25 23:50:51;;;;;;;17.88;10.90;;;19.60;99.90;;;;;;5094695;28;20095;-61
2023/01/25 23:53:17;;;;;;;15.30;10.45;;;19.60;99.90;;;;;;5074831;28;20020;-59
2023/01/25 23:55:54;;;;;;;18.45;11.27;;;19.50;99.90;;;;;;5086094;28;20039;-60
2023/01/25 23:58:21;;;;;;;17.42;11.07;;;19.50;99.90;;;;;;5094942;28;20085;-60
